Time;durP1;ratioP1;P1;durP2;ratioP2;P2;SDS_P1;SDS_P2;PMS_P1;PMS_P2;Temp;Humidity;BMP_temperature;BMP_pressure;BME280_temperature;BME280_humidity;BME280_pressure;Samples;Min_cycle;Max_cycle;Signal;HPM_P1;HPM_P2
2021/04/15 00:00:06;;;;;;;;;;;0.10;99.90;;;;;;5009075;28;19996;-76
2021/04/15 00:02:39;;;;;;;;;;;0.00;99.90;;;;;;4983046;28;19931;-76
2021/04/15 00:05:08;;;;;;;;;;;-0.10;99.90;;;;;;5017432;28;19956;-76
2021/04/15 00:07:35;;;;;;;;;;;-0.10;99.90;;;;;;4983489;28;20371;-78
2021/04/15 00:10:05;;;;;;;;;;;-0.20;99.90;;;;;;4999888;28;19921;-79
2021/04/15 00:12:36;;;;;;;;;;;-0.30;99.90;;;;;;4999978;28;19921;-76
2021/04/15 00:15:04;;;;;;;;;;;-0.30;99.90;;;;;;5017098;28;19976;-76
2021/04/15 00:17:31;;;;;;;;;;;-0.30;99.90;;;;;;5016454;28;19964;-76
2021/04/15 00:19:58;;;;;;;;;;;-0.50;99.90;;;;;;4982911;28;20383;-76
2021/04/15 00:22:25;;;;;;;;;;;-0.50;99.90;;;;;;5016962;28;19921;-79
2021/04/15 00:24:52;;;;;;;;;;;-0.50;99.90;;;;;;4998495;28;19932;-77
2021/04/15 00:27:20;;;;;;;;;;;-0.50;99.90;;;;;;5017845;28;19927;-78
2021/04/15 00:29:49;;;;;;;;;;;-0.60;99.90;;;;;;5017729;28;20351;-76
2021/04/15 00:32:16;;;;;;;;;;;-0.50;99.90;;;;;;4998282;28;19928;-76
2021/04/15 00:34:43;;;;;;;;;;;-0.60;99.90;;;;;;5016751;28;20015;-76
2021/04/15 00:37:10;;;;;;;;;;;-0.60;99.90;;;;;;5016736;28;19925;-76
2021/04/15 00:39:38;;;;;;;;;;;-0.70;99.90;;;;;;5016939;28;19936;-75
2021/04/15 00:42:05;;;;;;;;;;;-0.70;99.90;;;;;;5017203;28;19928;-76
2021/04/15 00:44:33;;;;;;;;;;;-0.80;99.90;;;;;;5016576;28;19944;-75
2021/04/15 00:47:02;;;;;;;;;;;-0.80;99.90;;;;;;4998537;28;19921;-75
2021/04/15 00:49:32;;;;;;;;;;;-0.90;99.90;;;;;;4999847;28;19928;-76
2021/04/15 00:52:04;;;;;;;;;;;-0.80;99.90;;;;;;5021085;28;19928;-76
2021/04/15 00:57:32;;;;;;;;;;;-1.00;99.90;;;;;;5023081;28;19922;-76
2021/04/15 01:00:00;;;;;;;;;;;-0.90;99.90;;;;;;5014676;28;19922;-76
2021/04/15 01:02:29;;;;;;;;;;;-0.90;99.90;;;;;;5031664;28;19992;-75
2021/04/15 01:04:58;;;;;;;;;;;-0.90;99.90;;;;;;5015922;28;19921;-77
2021/04/15 01:07:26;;;;;;;;;;;-0.90;99.90;;;;;;5014929;28;19921;-76
2021/04/15 01:09:54;;;;;;;;;;;-0.90;99.90;;;;;;5018664;28;19979;-77
2021/04/15 01:12:34;;;;;;;;;;;-0.90;99.90;;;;;;5019581;28;19909;-76
2021/04/15 01:15:13;;;;;;;;;;;-1.00;99.90;;;;;;5019297;28;19988;-76
2021/04/15 01:17:45;;;;;;;;;;;-0.90;99.90;;;;;;5018180;28;19984;-75
2021/04/15 01:20:28;;;;;;;;;;;-1.00;99.90;;;;;;5018513;28;19929;-76
2021/04/15 01:23:20;;;;;;;;;;;-1.10;99.90;;;;;;5016712;28;19921;-75
2021/04/15 01:26:01;;;;;;;;;;;-1.10;99.90;;;;;;5016632;28;19964;-77
2021/04/15 01:28:40;;;;;;;;;;;-1.10;99.90;;;;;;4998148;28;19921;-79
2021/04/15 01:31:19;;;;;;;;;;;-1.10;99.90;;;;;;5015265;28;20004;-75
2021/04/15 01:33:50;;;;;;;;;;;-1.20;99.90;;;;;;4998402;28;19921;-76
2021/04/15 01:36:22;;;;;;;;;;;-1.20;99.90;;;;;;5015859;28;19926;-76
2021/04/15 01:38:50;;;;;;;;;;;-1.20;99.90;;;;;;5016829;28;20418;-76
2021/04/15 01:41:20;;;;;;;;;;;-1.20;99.90;;;;;;4999677;28;19929;-75
2021/04/15 01:43:51;;;;;;;;;;;-1.20;99.90;;;;;;4998994;28;19921;-76
2021/04/15 01:46:25;;;;;;;;;;;-1.30;99.90;;;;;;4997846;28;19921;-76
2021/04/15 01:48:53;;;;;;;;;;;-1.30;99.90;;;;;;5016260;28;19944;-77
2021/04/15 01:51:22;;;;;;;;;;;-1.30;99.90;;;;;;4998300;28;19927;-76
2021/04/15 01:53:51;;;;;;;;;;;-1.30;99.90;;;;;;4998274;28;19921;-76
2021/04/15 01:56:20;;;;;;;;;;;-1.30;99.90;;;;;;5015783;28;19921;-76
2021/04/15 01:58:50;;;;;;;;;;;-1.30;99.90;;;;;;4998174;28;20441;-76
2021/04/15 02:01:19;;;;;;;;;;;-1.40;99.90;;;;;;4997476;28;19945;-76
2021/04/15 02:03:49;;;;;;;;;;;-1.40;99.90;;;;;;4981499;28;19921;-78
2021/04/15 02:06:21;;;;;;;;;;;-1.40;99.90;;;;;;5015090;28;20012;-77
2021/04/15 02:08:50;;;;;;;;;;;-1.30;99.90;;;;;;4997905;28;19928;-79
2021/04/15 02:11:19;;;;;;;;;;;-1.40;99.90;;;;;;4997785;28;20279;-76
2021/04/15 02:13:47;;;;;;;;;;;-1.40;99.90;;;;;;4997692;28;19921;-76
2021/04/15 02:16:17;;;;;;;;;;;-1.50;99.90;;;;;;5014102;28;19925;-76
2021/04/15 02:18:46;;;;;;;;;;;-1.50;99.90;;;;;;4981211;28;20371;-77
2021/04/15 02:21:23;;;;;;;;;;;-1.60;99.90;;;;;;4981574;28;20016;-76
2021/04/15 02:23:52;;;;;;;;;;;-1.60;99.90;;;;;;4997154;28;19928;-78
2021/04/15 02:26:22;;;;;;;;;;;-1.60;99.90;;;;;;4997508;28;19925;-75
2021/04/15 02:28:55;;;;;;;;;;;-1.60;99.90;;;;;;5014867;28;19928;-76
2021/04/15 02:31:25;;;;;;;;;;;-1.70;99.90;;;;;;5013802;28;19928;-76
2021/04/15 02:33:57;;;;;;;;;;;-1.60;99.90;;;;;;4996930;28;19921;-76
2021/04/15 02:36:27;;;;;;;;;;;-1.60;99.90;;;;;;4981254;28;19925;-75
2021/04/15 02:38:56;;;;;;;;;;;-1.70;99.90;;;;;;4997422;28;19952;-77
2021/04/15 02:41:25;;;;;;;;;;;-1.80;99.90;;;;;;5014873;28;19925;-79
2021/04/15 02:43:54;;;;;;;;;;;-1.80;99.90;;;;;;5014940;28;19921;-75
2021/04/15 02:46:24;;;;;;;;;;;-1.80;99.90;;;;;;4996214;28;19928;-75
2021/04/15 02:48:55;;;;;;;;;;;-1.80;99.90;;;;;;5014140;28;20327;-77
2021/04/15 02:51:24;;;;;;;;;;;-1.80;99.90;;;;;;5014441;28;19921;-75
2021/04/15 02:53:55;;;;;;;;;;;-1.80;99.90;;;;;;4996885;28;19922;-75
2021/04/15 02:56:25;;;;;;;;;;;-1.80;99.90;;;;;;5013172;28;19922;-76
2021/04/15 02:58:56;;;;;;;;;;;-1.80;99.90;;;;;;5014321;28;19921;-79
2021/04/15 03:01:25;;;;;;;;;;;-1.80;99.90;;;;;;4979613;28;20382;-76
2021/04/15 03:03:55;;;;;;;;;;;-1.90;99.90;;;;;;5014441;28;19921;-75
2021/04/15 03:06:24;;;;;;;;;;;-1.90;99.90;;;;;;5014317;28;19960;-76
2021/04/15 03:08:55;;;;;;;;;;;-1.90;99.90;;;;;;5014359;28;20267;-79
2021/04/15 03:11:26;;;;;;;;;;;-1.90;99.90;;;;;;5013235;28;19921;-78
2021/04/15 03:13:55;;;;;;;;;;;-1.90;99.90;;;;;;4997472;28;19928;-75
2021/04/15 03:16:25;;;;;;;;;;;-1.90;99.90;;;;;;5014777;28;19921;-75
2021/04/15 03:18:55;;;;;;;;;;;-1.90;99.90;;;;;;4981764;28;19921;-76
2021/04/15 03:21:24;;;;;;;;;;;-1.90;99.90;;;;;;5015318;28;19928;-76
2021/04/15 03:23:53;;;;;;;;;;;-2.00;99.90;;;;;;5014412;28;25143;-75
2021/04/15 03:26:34;;;;;;;;;;;-2.00;99.90;;;;;;5015297;28;20252;-79
2021/04/15 03:29:06;;;;;;;;;;;-2.00;99.90;;;;;;5014655;28;20024;-76
2021/04/15 03:31:42;;;;;;;;;;;-2.10;99.90;;;;;;4980742;28;25089;-76
2021/04/15 03:34:14;;;;;;;;;;;-2.10;99.90;;;;;;5015107;28;19921;-75
2021/04/15 03:36:43;;;;;;;;;;;-2.00;99.90;;;;;;4997964;28;19921;-75
2021/04/15 03:39:36;;;;;;;;;;;-2.10;99.90;;;;;;5015891;28;19925;-75
2021/04/15 03:42:07;;;;;;;;;;;-2.10;99.90;;;;;;4997704;28;20025;-75
2021/04/15 03:44:38;;;;;;;;;;;-2.10;99.90;;;;;;4997585;28;20427;-76
2021/04/15 03:47:08;;;;;;;;;;;-2.10;99.90;;;;;;5014249;28;19921;-76
2021/04/15 03:49:38;;;;;;;;;;;-2.10;99.90;;;;;;4997640;28;20314;-76
2021/04/15 03:52:08;;;;;;;;;;;-2.10;99.90;;;;;;4997283;28;19927;-78
2021/04/15 03:54:36;;;;;;;;;;;-2.10;99.90;;;;;;5014836;28;19925;-76
2021/04/15 03:57:05;;;;;;;;;;;-2.10;99.90;;;;;;4997686;28;20008;-75
2021/04/15 03:59:43;;;;;;;;;;;-2.20;99.90;;;;;;5015036;28;20019;-76
2021/04/15 04:02:12;;;;;;;;;;;-2.20;99.90;;;;;;4983429;28;19921;-75
2021/04/15 04:04:42;;;;;;;;;;;-2.20;99.90;;;;;;5000428;28;19928;-79
2021/04/15 04:07:11;;;;;;;;;;;-2.20;99.90;;;;;;4999879;28;20008;-75
2021/04/15 04:09:41;;;;;;;;;;;-2.20;99.90;;;;;;5017767;28;20401;-76
2021/04/15 04:12:11;;;;;;;;;;;-2.20;99.90;;;;;;5017405;28;19921;-75
2021/04/15 04:14:41;;;;;;;;;;;-2.20;99.90;;;;;;5017785;28;19952;-77
2021/04/15 04:17:10;;;;;;;;;;;-2.20;99.90;;;;;;5014827;28;20414;-76
2021/04/15 04:19:40;;;;;;;;;;;-2.30;99.90;;;;;;4983903;28;19925;-75
2021/04/15 04:22:11;;;;;;;;;;;-2.30;99.90;;;;;;5017366;28;19929;-76
2021/04/15 04:24:44;;;;;;;;;;;-2.30;99.90;;;;;;4999355;28;19922;-75
2021/04/15 04:27:19;;;;;;;;;;;-2.30;99.90;;;;;;5015403;28;25053;-77
2021/04/15 04:29:51;;;;;;;;;;;-2.20;99.90;;;;;;4999355;28;19922;-76
2021/04/15 04:32:21;;;;;;;;;;;-2.30;99.90;;;;;;4998395;28;19921;-75
2021/04/15 04:34:50;;;;;;;;;;;-2.30;99.90;;;;;;4999697;28;19925;-76
2021/04/15 04:37:19;;;;;;;;;;;-2.30;99.90;;;;;;5017335;28;19921;-76
2021/04/15 04:39:47;;;;;;;;;;;-2.30;99.90;;;;;;4999633;28;20278;-76
2021/04/15 04:42:18;;;;;;;;;;;-2.30;99.90;;;;;;5016995;28;19972;-76
2021/04/15 04:44:47;;;;;;;;;;;-2.30;99.90;;;;;;4999324;28;19922;-77
2021/04/15 04:47:20;;;;;;;;;;;-2.20;99.90;;;;;;4981710;28;20387;-75
2021/04/15 04:49:52;;;;;;;;;;;-2.20;99.90;;;;;;4983069;28;19980;-77
2021/04/15 04:52:22;;;;;;;;;;;-2.10;99.90;;;;;;5000741;28;19979;-80
2021/04/15 04:54:50;;;;;;;;;;;-2.10;99.90;;;;;;5019421;28;19921;-80
2021/04/15 04:57:30;;;;;;;486.73;153.27;;;-2.10;99.90;;;;;;4984177;28;20429;-80
2021/04/15 05:00:00;;;;;;;;;;;-2.00;99.90;;;;;;4979423;28;20414;-80
2021/04/15 05:02:28;;;;;;;;;;;-2.00;99.90;;;;;;4980197;28;25076;-80
2021/04/15 05:05:00;;;;;;;;;;;-1.90;99.90;;;;;;4964701;28;25061;-81
2021/04/15 05:07:29;;;;;;;;;;;-1.90;99.90;;;;;;4997496;28;25062;-80
2021/04/15 05:09:57;;;;;;;;;;;-1.80;99.90;;;;;;4980455;28;25063;-79
2021/04/15 05:12:26;;;;;;;;;;;-1.70;99.90;;;;;;4980719;28;25076;-79
2021/04/15 05:14:54;;;;;;;;;;;-1.60;99.90;;;;;;4997411;28;25145;-79
2021/04/15 05:17:24;;;;;;;;;;;-1.50;99.90;;;;;;5016629;28;25110;-81
2021/04/15 05:19:57;;;;;;;;;;;-1.50;99.90;;;;;;5000396;28;25057;-79
2021/04/15 05:22:26;;;;;;;;;;;-1.40;99.90;;;;;;5019482;28;25061;-79
2021/04/15 05:24:57;;;;;;;;;;;-1.40;99.90;;;;;;5000242;28;25068;-78
2021/04/15 05:27:26;;;;;;;;;;;-1.30;99.90;;;;;;4984207;28;25075;-78
2021/04/15 05:29:59;;;;;;;;;;;-1.20;99.90;;;;;;5000364;28;25112;-79
2021/04/15 05:32:27;;;;;;;;;;;-1.10;99.90;;;;;;5014209;28;25248;-79
2021/04/15 05:34:55;;;;;;;;;;;-0.90;99.90;;;;;;4996671;28;25047;-79
2021/04/15 05:37:24;;;;;;;;;;;-0.80;99.90;;;;;;5002832;28;25063;-79
2021/04/15 05:39:52;;;;;;;;;;;-0.70;99.90;;;;;;4999796;28;25115;-80
2021/04/15 05:42:24;;;;;;;;;;;-0.60;99.90;;;;;;4999222;28;25087;-81
2021/04/15 05:45:18;;;;;;;;;;;-0.50;99.90;;;;;;4998116;28;25151;-79
2021/04/15 05:47:51;;;;;;;;;;;-0.30;99.90;;;;;;4983350;28;25135;-81
2021/04/15 05:50:21;;;;;;;;;;;-0.20;99.90;;;;;;5000070;28;25058;-79
2021/04/15 05:52:52;;;;;;;;;;;0.00;99.90;;;;;;4999572;28;25059;-80
2021/04/15 05:55:22;;;;;;;;;;;0.20;99.90;;;;;;4999900;28;25064;-79
2021/04/15 05:57:51;;;;;;;;;;;0.30;99.90;;;;;;4999839;28;25102;-80
2021/04/15 06:00:21;;;;;;;;;;;0.40;99.90;;;;;;4999256;28;25088;-78
2021/04/15 06:02:51;;;;;;;;;;;0.40;99.90;;;;;;5000051;28;25089;-80
2021/04/15 06:05:22;;;;;;;;;;;0.60;99.90;;;;;;5001466;28;25086;-80
2021/04/15 06:07:51;;;;;;;;;;;0.80;99.90;;;;;;4986749;28;25101;-80
2021/04/15 06:10:21;;;;;;;;;;;0.90;99.90;;;;;;4988864;28;19921;-80
2021/04/15 06:12:51;;;;;;;;;;;1.10;99.90;;;;;;4988397;28;19994;-81
2021/04/15 06:15:21;;;;;;;;;;;1.50;99.90;;;;;;5017133;28;19948;-79
2021/04/15 06:17:59;;;;;;;;;;;1.80;99.90;;;;;;5000667;28;19960;-79
2021/04/15 06:20:28;;;;;;;;;;;2.10;99.90;;;;;;5000804;28;19928;-80
2021/04/15 06:23:02;;;;;;;;;;;2.40;99.90;;;;;;5000200;28;19925;-81
2021/04/15 06:25:32;;;;;;;;;;;2.50;99.90;;;;;;4985047;28;20306;-80
2021/04/15 06:28:02;;;;;;;;;;;2.70;99.90;;;;;;5001127;28;19921;-80
2021/04/15 06:30:39;;;;;;;;;;;2.90;99.90;;;;;;5016682;28;20423;-80
2021/04/15 06:33:07;;;;;;;;;;;2.90;99.90;;;;;;5000654;28;20012;-79
2021/04/15 06:35:41;;;;;;;;;;;3.10;99.90;;;;;;5001208;28;19925;-80
2021/04/15 06:38:11;;;;;;;;;;;3.70;99.90;;;;;;5018462;28;19922;-80
2021/04/15 06:40:56;;;;;;;;;;;4.00;99.90;;;;;;5001788;28;19928;-79
2021/04/15 06:43:58;;;;;;;;;;;3.80;99.90;;;;;;5000022;28;20012;-79
2021/04/15 06:46:35;;;;;;;;;;;4.30;99.90;;;;;;4999754;28;19921;-77
2021/04/15 06:49:22;;;;;;;;;;;4.80;99.90;;;;;;5000780;28;19921;-77
2021/04/15 06:51:53;;;;;;;;;;;5.20;99.90;;;;;;5001119;28;19922;-79
2021/04/15 06:54:33;;;;;;;;;;;5.70;99.30;;;;;;4984010;28;20371;-79
2021/04/15 06:57:12;;;;;;;;;;;5.40;98.70;;;;;;5017517;28;19921;-78
2021/04/15 06:59:47;;;;;;;;;;;4.80;99.10;;;;;;5000782;28;19913;-78
2021/04/15 07:02:23;;;;;;;;;;;4.40;99.90;;;;;;4982945;28;19921;-78
2021/04/15 07:04:56;;;;;;;;;;;4.90;99.90;;;;;;5000024;28;19988;-78
2021/04/15 07:07:26;;;;;;;;;;;5.90;99.60;;;;;;5019157;28;19922;-79
2021/04/15 07:10:06;;;;;;;;;;;5.90;98.30;;;;;;5000613;28;19932;-79
2021/04/15 07:13:01;;;;;;;;;;;5.20;98.40;;;;;;5018124;28;19921;-79
2021/04/15 07:15:46;;;;;;;;;;;5.90;98.80;;;;;;5000245;28;19956;-79
2021/04/15 07:18:30;;;;;;;;;;;5.40;98.60;;;;;;4972043;28;19976;-78
2021/04/15 07:21:09;;;;;;;;;;;5.10;98.80;;;;;;4999563;28;19925;-78
2021/04/15 07:23:55;;;;;;;;;;;5.40;99.60;;;;;;5017662;28;20344;-80
2021/04/15 07:26:48;;;;;;;;;;;5.30;99.10;;;;;;5016390;28;19921;-79
2021/04/15 07:30:06;;;;;;;;;;;4.80;99.80;;;;;;5018788;28;19921;-78
2021/04/15 07:32:41;;;;;;;;;;;4.50;99.90;;;;;;4983093;28;20328;-78
2021/04/15 07:35:17;;;;;;;;;;;3.90;99.90;;;;;;4984307;28;19922;-79
2021/04/15 07:37:48;;;;;;;;;;;4.00;99.90;;;;;;5004279;28;19927;-80
2021/04/15 07:40:33;;;;;;;;;;;4.10;99.90;;;;;;5020912;28;20326;-78
2021/04/15 07:46:08;;;;;;;;;;;4.70;99.90;;;;;;5004402;28;20368;-78
2021/04/15 07:48:58;;;;;;;;;;;5.40;99.90;;;;;;5021559;28;19925;-79
2021/04/15 07:51:39;;;;;;;;;;;5.60;98.70;;;;;;5004092;28;19932;-79
2021/04/15 07:57:29;;;;;;;;;;;5.80;98.40;;;;;;5021429;28;20330;-78
2021/04/15 08:00:11;;;;;;;;;;;6.60;98.00;;;;;;5020676;28;20286;-79
2021/04/15 08:02:44;;;;;;;;;;;7.20;95.80;;;;;;5001878;28;19938;-78
2021/04/15 08:05:33;;;;;;;;;;;6.70;95.70;;;;;;4985093;28;20387;-81
2021/04/15 08:08:37;;;;;;;;;;;7.50;94.80;;;;;;4998423;28;19929;-79
2021/04/15 08:11:12;;;;;;;;;;;8.80;92.40;;;;;;5000106;28;19976;-80
2021/04/15 08:13:47;;;;;;;;;;;9.20;90.40;;;;;;4983236;28;19922;-79
2021/04/15 08:16:21;;;;;;;;;;;9.50;90.60;;;;;;4978522;28;19906;-80
2021/04/15 08:18:50;;;;;;;;;;;9.50;88.60;;;;;;5004314;28;19976;-79
2021/04/15 08:21:23;;;;;;;;;;;10.00;86.30;;;;;;5021052;28;19925;-80
2021/04/15 08:24:30;;;;;;;22.15;20.73;;;10.30;83.60;;;;;;5003847;28;20421;-80
2021/04/15 08:27:25;;;;;;;;;;;10.90;79.20;;;;;;5021925;28;20183;-80
2021/04/15 08:29:59;;;;;;;;;;;12.00;74.20;;;;;;5005235;28;19980;-80
2021/04/15 08:32:31;;;;;;;;;;;10.70;77.60;;;;;;4986595;28;19925;-81
2021/04/15 08:35:10;;;;;;;;;;;9.50;82.00;;;;;;5021342;28;20000;-80
2021/04/15 08:37:42;;;;;;;;;;;9.20;85.50;;;;;;5004257;28;19929;-81
2021/04/15 08:40:33;;;;;;;767.17;695.45;;;10.40;83.70;;;;;;4992925;28;20434;-81
2021/04/15 08:46:10;;;;;;;;;;;11.00;78.20;;;;;;4987022;28;20550;-80
2021/04/15 08:48:39;;;;;;;;;;;11.20;78.60;;;;;;4984895;28;25128;-80
2021/04/15 08:51:18;;;;;;;;;;;11.00;74.80;;;;;;5002832;28;25112;-80
2021/04/15 08:53:57;;;;;;;;;;;12.60;74.20;;;;;;4984357;28;25088;-80
2021/04/15 08:56:26;;;;;;;;;;;13.70;64.60;;;;;;4969499;28;25084;-79
2021/04/15 08:58:57;;;;;;;;;;;14.70;62.00;;;;;;4988858;28;20422;-80
2021/04/15 09:01:34;;;;;;;;;;;14.30;60.50;;;;;;4999949;28;20428;-80
2021/04/15 09:04:10;;;;;;;;;;;13.80;59.20;;;;;;5004794;28;19924;-80
2021/04/15 09:06:41;;;;;;;;;;;14.40;59.30;;;;;;5029509;28;20463;-80
2021/04/15 09:09:22;;;;;;;;;;;14.80;57.20;;;;;;5011989;28;19921;-79
2021/04/15 09:12:09;;;;;;;;;;;16.50;54.90;;;;;;5010453;28;19956;-79
2021/04/15 09:14:43;;;;;;;;;;;15.90;52.40;;;;;;5029653;28;20370;-80
2021/04/15 09:17:24;;;;;;;;;;;14.20;53.30;;;;;;5026995;28;19921;-79
2021/04/15 09:19:59;;;;;;;;;;;17.80;50.40;;;;;;5043849;28;20387;-79
2021/04/15 09:22:40;;;;;;;;;;;18.00;47.60;;;;;;5023843;28;20397;-80
2021/04/15 09:25:11;;;;;;;;;;;17.90;46.10;;;;;;5041631;28;19932;-80
2021/04/15 09:27:46;;;;;;;;;;;15.20;49.00;;;;;;5041013;28;19921;-78
2021/04/15 09:30:36;;;;;;;;;;;15.60;49.60;;;;;;5037744;28;19921;-79
2021/04/15 09:33:14;;;;;;;;;;;15.20;51.60;;;;;;5014479;28;19921;-79
2021/04/15 09:35:53;;;;;;;;;;;11.60;55.40;;;;;;5008935;28;19928;-80
2021/04/15 09:38:50;;;;;;;;;;;11.20;59.50;;;;;;5007367;28;19921;-80
2021/04/15 09:41:36;;;;;;;;;;;9.40;64.40;;;;;;5004554;28;19921;-80
2021/04/15 09:44:11;;;;;;;;;;;9.10;68.10;;;;;;5030326;28;19928;-80
2021/04/15 09:46:47;;;;;;;;;;;8.70;69.70;;;;;;5008890;28;19921;-80
2021/04/15 09:53:27;;;;;;;;;;;7.30;74.90;;;;;;5023129;28;19925;-81
2021/04/15 09:56:01;;;;;;;;;;;7.20;78.80;;;;;;5004115;28;19922;-81
2021/04/15 09:58:33;;;;;;;;;;;7.30;79.20;;;;;;5004239;28;20397;-80
2021/04/15 10:01:15;;;;;;;;;;;6.90;80.10;;;;;;4993574;28;19972;-80
2021/04/15 10:03:47;;;;;;;;;;;6.90;80.50;;;;;;5002329;28;20383;-80
2021/04/15 10:06:20;;;;;;;;;;;6.30;83.70;;;;;;4970665;28;19925;-80
2021/04/15 10:09:07;;;;;;;;;;;6.40;86.30;;;;;;5004693;28;19921;-80
2021/04/15 10:11:51;;;;;;;111.43;34.78;;;6.60;86.70;;;;;;4995632;28;20429;-80
2021/04/15 10:14:30;;;;;;;;;;;6.80;86.10;;;;;;5025426;23;20051;-80
2021/04/15 10:17:03;;;;;;;;;;;6.90;85.00;;;;;;5004818;28;19933;-79
2021/04/15 10:19:44;;;;;;;;;;;7.00;84.30;;;;;;4967785;28;20016;-80
2021/04/15 10:22:15;;;;;;;;;;;7.30;84.40;;;;;;4965954;28;19921;-79
2021/04/15 10:25:08;;;;;;;;;;;7.50;83.90;;;;;;4966590;28;19922;-79
2021/04/15 10:28:00;;;;;;;;;;;7.70;82.00;;;;;;4997950;28;19989;-79
2021/04/15 10:30:57;;;;;;;;;;;7.70;82.00;;;;;;4966919;28;19922;-78
2021/04/15 10:33:48;;;;;;;;;;;7.90;82.10;;;;;;4909097;29;19922;-80
2021/04/15 10:36:26;;;;;;;;;;;7.60;82.10;;;;;;4998003;28;20057;-78
2021/04/15 10:38:55;;;;;;;;;;;7.20;83.20;;;;;;5001992;28;19981;-79
2021/04/15 10:41:38;;;;;;;;;;;7.10;84.20;;;;;;4985089;28;19922;-80
2021/04/15 10:44:26;;;;;;;;;;;7.00;85.40;;;;;;4979604;28;19922;-78
2021/04/15 10:47:05;;;;;;;;;;;7.10;84.50;;;;;;4978907;28;20450;-80
2021/04/15 10:49:37;;;;;;;;;;;6.50;83.30;;;;;;4983568;28;19925;-78
2021/04/15 10:52:15;;;;;;;;;;;6.40;82.40;;;;;;4999016;28;19972;-78
2021/04/15 10:54:43;;;;;;;;;;;6.40;81.20;;;;;;4999211;28;19921;-79
2021/04/15 10:57:16;;;;;;;;;;;6.50;81.40;;;;;;4998773;28;19937;-78
2021/04/15 10:59:45;;;;;;;;;;;6.70;80.20;;;;;;4981320;28;19922;-78
2021/04/15 11:02:21;;;;;;;;;;;6.90;78.30;;;;;;4978750;28;19921;-80
2021/04/15 11:05:14;;;;;;;;;;;7.00;75.30;;;;;;4996679;28;19922;-78
2021/04/15 11:07:43;;;;;;;;;;;7.00;73.30;;;;;;4983073;28;19968;-79
2021/04/15 11:10:17;;;;;;;;;;;6.90;71.10;;;;;;5003847;28;20047;-78
2021/04/15 11:12:49;;;;;;;;;;;7.00;68.80;;;;;;4983829;28;19957;-77
2021/04/15 11:15:22;;;;;;;;;;;7.20;69.30;;;;;;5001461;28;19984;-78
2021/04/15 11:17:53;;;;;;;;;;;7.40;70.10;;;;;;5001987;28;19979;-78
2021/04/15 11:20:26;;;;;;;;;;;7.50;70.20;;;;;;5001871;28;20295;-79
2021/04/15 11:29:20;;;;;;;;;;;7.30;71.70;;;;;;4987031;28;19922;-79
2021/04/15 11:31:48;;;;;;;;;;;7.80;72.20;;;;;;4983146;28;19928;-79
2021/04/15 11:34:20;;;;;;;;;;;7.90;73.60;;;;;;4987761;28;20260;-80
2021/04/15 11:36:59;;;;;;;;;;;8.10;77.30;;;;;;4970050;28;19922;-80
2021/04/15 11:39:29;;;;;;;;;;;8.10;81.30;;;;;;5002785;28;19956;-81
2021/04/15 11:42:00;;;;;;;;;;;7.30;83.40;;;;;;5000453;28;19913;-79
2021/04/15 11:44:30;;;;;;;;;;;7.30;84.40;;;;;;5007376;28;19945;-80
2021/04/15 11:46:59;;;;;;;;;;;8.10;84.20;;;;;;4969961;28;20371;-79
2021/04/15 11:49:29;;;;;;;;;;;8.80;80.70;;;;;;4989163;28;19932;-80
2021/04/15 11:51:59;;;;;;;;;;;8.40;80.00;;;;;;5003720;28;19910;-79
2021/04/15 11:54:33;;;;;;;;;;;9.10;77.20;;;;;;4988072;28;19922;-80
2021/04/15 11:57:17;;;;;;;;;;;9.60;74.40;;;;;;5002386;28;19968;-80
2021/04/15 11:59:44;;;;;;;;;;;10.20;74.00;;;;;;4969431;28;19929;-80
2021/04/15 12:02:14;;;;;;;;;;;10.60;71.30;;;;;;4985289;28;19921;-79
2021/04/15 12:04:41;;;;;;;;;;;10.90;70.30;;;;;;4983613;28;19921;-78
2021/04/15 12:07:23;;;;;;;;;;;11.00;72.30;;;;;;4983430;28;20016;-78
2021/04/15 12:09:51;;;;;;;;;;;10.00;74.70;;;;;;5018488;28;20076;-78
2021/04/15 12:12:24;;;;;;;;;;;9.50;76.90;;;;;;4985040;28;19921;-80
2021/04/15 12:14:53;;;;;;;;;;;8.90;78.90;;;;;;4986485;28;20109;-78
2021/04/15 12:17:28;;;;;;;;;;;8.50;78.50;;;;;;4985260;28;20434;-80
2021/04/15 12:19:59;;;;;;;;;;;8.60;80.20;;;;;;5001291;28;19976;-80
2021/04/15 12:22:30;;;;;;;;;;;9.40;80.10;;;;;;4985008;28;19951;-80
2021/04/15 12:25:01;;;;;;;;;;;10.10;77.50;;;;;;4988646;28;19921;-78
2021/04/15 12:27:29;;;;;;;;;;;10.00;74.10;;;;;;5016676;28;19922;-79
2021/04/15 12:30:00;;;;;;;;;;;9.90;76.30;;;;;;5016822;28;20389;-78
2021/04/15 12:32:34;;;;;;;;;;;10.50;69.90;;;;;;4980798;28;19932;-78
2021/04/15 12:35:13;;;;;;;;;;;10.70;68.40;;;;;;4948691;28;19922;-79
2021/04/15 12:37:42;;;;;;;;;;;10.20;65.20;;;;;;4980941;28;19926;-77
2021/04/15 12:40:30;;;;;;;;;;;9.60;71.10;;;;;;4995455;28;19992;-77
2021/04/15 12:43:00;;;;;;;;;;;10.00;69.60;;;;;;4982068;28;19989;-78
2021/04/15 12:45:30;;;;;;;;;;;9.20;70.30;;;;;;4984100;28;19928;-79
2021/04/15 12:47:58;;;;;;;;;;;9.80;71.70;;;;;;4966170;28;19925;-77
2021/04/15 12:50:27;;;;;;;;;;;10.40;69.70;;;;;;5000203;28;20038;-78
2021/04/15 12:52:55;;;;;;;;;;;10.00;70.00;;;;;;5000442;28;19921;-77
2021/04/15 12:55:23;;;;;;;;;;;9.60;73.60;;;;;;4982996;28;19949;-78
2021/04/15 12:57:56;;;;;;;;;;;9.70;72.00;;;;;;4983224;28;19976;-78
2021/04/15 13:00:28;;;;;;;;;;;9.80;72.20;;;;;;4998153;28;19922;-78
2021/04/15 13:03:05;;;;;;;;;;;9.50;72.00;;;;;;4983120;28;19960;-80
2021/04/15 13:05:52;;;;;;;;;;;9.60;71.00;;;;;;4999115;28;19929;-78
2021/04/15 13:08:20;;;;;;;;;;;9.00;70.70;;;;;;5003083;28;19922;-79
2021/04/15 13:10:47;;;;;;;;;;;9.10;73.40;;;;;;4983326;28;19922;-79
2021/04/15 13:13:21;;;;;;;;;;;8.90;72.20;;;;;;4999441;28;19925;-77
2021/04/15 13:15:49;;;;;;;;;;;9.10;72.10;;;;;;4962857;28;20308;-77
2021/04/15 13:18:35;;;;;;;;;;;9.50;71.40;;;;;;4962989;28;20000;-79
2021/04/15 13:21:10;;;;;;;;;;;10.00;68.50;;;;;;4981765;28;20073;-77
2021/04/15 13:23:40;;;;;;;;;;;12.00;63.80;;;;;;4949661;28;20328;-77
2021/04/15 13:26:29;;;;;;;;;;;12.70;59.40;;;;;;4984526;28;19926;-77
2021/04/15 13:29:01;;;;;;;;;;;12.30;55.50;;;;;;4969359;28;20013;-77
2021/04/15 13:31:34;;;;;;;;;;;11.40;56.20;;;;;;4986208;28;19953;-77
2021/04/15 13:34:17;;;;;;;;;;;11.00;56.80;;;;;;4988515;28;19906;-79
2021/04/15 13:36:45;;;;;;;;;;;10.20;58.90;;;;;;4963388;28;19930;-78
2021/04/15 13:39:32;;;;;;;;;;;9.30;62.40;;;;;;4961695;28;20426;-78
2021/04/15 13:42:08;;;;;;;;;;;9.10;65.40;;;;;;4965057;28;19977;-78
2021/04/15 13:47:48;;;;;;;;;;;8.20;72.10;;;;;;4974628;28;19945;-79
2021/04/15 13:50:16;;;;;;;;;;;8.30;75.00;;;;;;4955014;28;19968;-77
2021/04/15 13:52:43;;;;;;;;;;;8.00;75.90;;;;;;4969101;28;19922;-78
2021/04/15 13:55:33;;;;;;;;;;;7.80;77.10;;;;;;4981153;28;20372;-77
2021/04/15 13:58:04;;;;;;;;;;;7.80;77.80;;;;;;4964068;28;20022;-78
2021/04/15 14:00:37;;;;;;;;;;;7.50;78.80;;;;;;4989868;28;20067;-78
2021/04/15 14:03:04;;;;;;;;;;;7.60;79.70;;;;;;4967272;28;20473;-77
2021/04/15 14:05:37;;;;;;;;;;;7.60;76.80;;;;;;4998652;28;19921;-77
2021/04/15 14:08:43;;;;;;;;;;;8.00;74.20;;;;;;5013977;28;20348;-78
2021/04/15 14:11:38;;;;;;;;;;;8.30;74.80;;;;;;5013916;28;19988;-77
2021/04/15 14:14:17;;;;;;;;;;;8.50;74.00;;;;;;5004853;28;20330;-77
2021/04/15 14:16:50;;;;;;;;;;;8.80;75.20;;;;;;5016904;28;19963;-77
2021/04/15 14:19:24;;;;;;;;;;;8.80;76.30;;;;;;5004769;28;19921;-77
2021/04/15 14:21:51;;;;;;;;;;;9.20;77.40;;;;;;5002108;28;20346;-78
2021/04/15 14:24:24;;;;;;;;;;;8.80;76.40;;;;;;5017651;28;19925;-77
2021/04/15 14:26:53;;;;;;;;;;;9.20;74.40;;;;;;5017943;28;19933;-77
2021/04/15 14:29:26;;;;;;;;;;;8.10;73.70;;;;;;5017894;28;19931;-77
2021/04/15 14:32:16;;;;;;;;;;;8.10;73.30;;;;;;4982900;28;19928;-78
2021/04/15 14:34:44;;;;;;;;;;;8.80;68.40;;;;;;5017734;28;20420;-78
2021/04/15 14:37:13;;;;;;;;;;;9.10;62.40;;;;;;5032064;28;20286;-78
2021/04/15 14:39:42;;;;;;;;;;;9.20;63.10;;;;;;5018034;28;19948;-79
2021/04/15 14:42:10;;;;;;;;;;;8.80;62.10;;;;;;5033763;28;20387;-80
2021/04/15 14:44:38;;;;;;;;;;;8.60;61.80;;;;;;5032612;28;19967;-78
2021/04/15 14:47:13;;;;;;;;;;;8.60;59.30;;;;;;5015599;28;19976;-78
2021/04/15 14:49:41;;;;;;;;;;;8.60;57.40;;;;;;5000472;28;19996;-77
2021/04/15 14:52:16;;;;;;;;;;;8.60;57.10;;;;;;4998840;28;20374;-77
2021/04/15 14:54:44;;;;;;;;;;;8.60;55.90;;;;;;5001456;28;20417;-78
2021/04/15 14:57:19;;;;;;;;;;;8.60;55.10;;;;;;4999182;28;19941;-77
2021/04/15 14:59:58;;;;;;;;;;;8.60;54.40;;;;;;5017469;28;19928;-77
2021/04/15 15:02:30;;;;;;;;;;;8.70;53.80;;;;;;5030513;28;20434;-77
2021/04/15 15:04:58;;;;;;;;;;;9.10;51.70;;;;;;5016226;28;20012;-80
2021/04/15 15:07:37;;;;;;;;;;;8.70;48.90;;;;;;5018571;28;19921;-77
2021/04/15 15:10:05;;;;;;;;;;;8.80;50.60;;;;;;5000633;28;19929;-77
2021/04/15 15:12:36;;;;;;;;;;;8.80;50.80;;;;;;5000197;28;19921;-77
2021/04/15 15:15:05;;;;;;;;;;;8.80;50.00;;;;;;4999346;28;19967;-77
2021/04/15 15:17:34;;;;;;;;;;;8.70;49.50;;;;;;5014314;28;20265;-77
2021/04/15 15:20:10;;;;;;;;;;;8.80;48.80;;;;;;5016401;28;20392;-77
2021/04/15 15:22:38;;;;;;;;;;;8.90;49.60;;;;;;5014173;28;20282;-76
2021/04/15 15:25:07;;;;;;;;;;;8.90;50.00;;;;;;5015488;28;20347;-76